MLT weather

Millinocket Municipal Airport
Millinocket, Maine, United States

Public forecast

Using degrees Fahrenheit for public forecast. Weather courtesy of forecast.io.

Current aviation weather report (METAR) for Millinocket Municipal Airport

Retrieved 2019/10/14 01:53 UTC (1 hour ago):

KMLT 140153Z AUTO 00000KT 10SM CLR 05/04 A3004 RMK AO2 SLP180 T00500039

Closest aviation forecast (TAF) to Millinocket Municipal Airport

Closest forecast is Houlton International Airport, 47.0 nm (87.0 km) NE. Retrieved 2019-10-14 00:33 UTC (2 hours ago):

TAF KHUL 132330Z 1400/1424 VRB02KT P6SM FEW040 FM140200 00000KT P6SM BCFG FEW002 BKN250 FM140400 00000KT 1SM BR SCT002 BKN200 FM141100 13003KT P6SM SCT050 BKN150 FM142200 15007KT P6SM BKN040 OVC080